createdAt,value
2018-07-01T00:01:33.130Z,0.83
2018-07-01T00:04:01.407Z,1.27
2018-07-01T00:06:29.684Z,0.93
2018-07-01T00:08:57.903Z,0.90
2018-07-01T00:11:26.172Z,0.80
2018-07-01T00:13:54.509Z,0.90
2018-07-01T00:16:22.782Z,0.60
2018-07-01T00:18:51.058Z,0.83
2018-07-01T00:21:19.040Z,0.90
2018-07-01T00:23:47.359Z,0.73
2018-07-01T00:26:15.682Z,1.00
2018-07-01T00:28:43.981Z,0.93
2018-07-01T00:31:12.249Z,1.00
2018-07-01T00:33:40.220Z,0.73
2018-07-01T00:36:08.508Z,0.80
2018-07-01T00:38:36.768Z,0.80
2018-07-01T00:41:04.987Z,0.70
2018-07-01T00:43:33.299Z,1.00
2018-07-01T00:46:01.579Z,0.63
2018-07-01T00:48:29.876Z,0.60
2018-07-01T00:50:58.200Z,0.57
2018-07-01T00:53:26.431Z,0.60
2018-07-01T00:55:54.719Z,0.80
2018-07-01T00:58:23.011Z,0.77
2018-07-01T01:00:51.284Z,0.70
2018-07-01T01:03:20.386Z,0.63
2018-07-01T01:05:48.726Z,0.50
2018-07-01T01:08:17.031Z,0.60
2018-07-01T01:10:45.321Z,0.73
2018-07-01T01:13:13.613Z,0.60
2018-07-01T01:15:41.856Z,0.63
2018-07-01T01:18:10.210Z,0.43
2018-07-01T01:20:38.191Z,0.60
2018-07-01T01:23:06.488Z,0.60
2018-07-01T01:25:34.802Z,0.63
2018-07-01T01:28:03.107Z,0.67
2018-07-01T01:30:31.111Z,0.50
2018-07-01T01:32:59.419Z,0.60
2018-07-01T01:35:27.670Z,0.60
2018-07-01T01:37:55.960Z,0.60
2018-07-01T01:40:27.427Z,0.40
2018-07-01T01:43:03.945Z,0.47
2018-07-01T01:45:44.799Z,0.30
2018-07-01T01:48:18.184Z,0.50
2018-07-01T01:50:57.193Z,0.53
2018-07-01T01:53:32.968Z,0.40
2018-07-01T01:56:06.564Z,0.50
2018-07-01T01:58:40.210Z,0.50
2018-07-01T02:01:14.410Z,0.40
2018-07-01T02:03:46.888Z,0.50
2018-07-01T02:06:20.115Z,0.50
2018-07-01T02:08:55.376Z,0.40
2018-07-01T02:11:24.296Z,0.50
2018-07-01T02:13:56.703Z,0.70
2018-07-01T02:16:28.399Z,0.50
2018-07-01T02:18:56.736Z,0.50
2018-07-01T02:21:25.012Z,0.60
2018-07-01T02:23:56.279Z,0.40
2018-07-01T02:26:24.561Z,0.50
2018-07-01T02:28:52.909Z,0.40
2018-07-01T02:31:21.196Z,0.47
2018-07-01T02:33:49.486Z,0.60
2018-07-01T02:36:17.760Z,0.60
2018-07-01T02:38:46.292Z,0.43
2018-07-01T02:41:14.994Z,0.47
2018-07-01T02:43:43.308Z,0.60
2018-07-01T02:46:11.681Z,0.40
2018-07-01T02:48:39.956Z,0.57
2018-07-01T02:51:08.413Z,0.50
2018-07-01T02:53:36.679Z,0.50
2018-07-01T02:56:05.201Z,0.40
2018-07-01T02:58:33.668Z,0.33
2018-07-01T03:01:01.929Z,0.37
2018-07-01T03:03:30.215Z,0.53
2018-07-01T03:05:58.477Z,0.40
2018-07-01T03:08:26.731Z,0.40
2018-07-01T03:10:55.063Z,0.60
2018-07-01T03:13:23.331Z,0.40
2018-07-01T03:15:51.615Z,0.40
2018-07-01T03:18:19.924Z,0.40
2018-07-01T03:20:48.225Z,0.47
2018-07-01T03:23:16.535Z,0.50
2018-07-01T03:25:44.821Z,0.50
2018-07-01T03:28:13.098Z,0.30
2018-07-01T03:30:41.424Z,0.40
2018-07-01T03:33:09.719Z,0.73
2018-07-01T03:35:37.984Z,0.60
2018-07-01T03:38:06.267Z,0.40
2018-07-01T03:40:34.285Z,0.30
2018-07-01T03:43:02.602Z,0.50
2018-07-01T03:45:30.918Z,0.50
2018-07-01T03:47:59.230Z,0.40
2018-07-01T03:50:27.537Z,0.30
2018-07-01T03:52:55.840Z,0.40
2018-07-01T03:55:24.131Z,0.40
2018-07-01T03:57:52.435Z,0.33
2018-07-01T04:00:20.737Z,0.60
2018-07-01T04:02:49.016Z,0.30
2018-07-01T04:05:17.296Z,0.70
2018-07-01T04:07:45.556Z,0.40
2018-07-01T04:10:13.812Z,0.40
2018-07-01T04:12:42.166Z,0.50
2018-07-01T04:15:10.383Z,0.50
2018-07-01T04:17:38.696Z,0.30
2018-07-01T04:20:07.048Z,0.20
2018-07-01T04:22:35.374Z,0.37
2018-07-01T04:25:03.681Z,0.50
2018-07-01T04:27:31.931Z,0.30
2018-07-01T04:30:00.210Z,0.40
2018-07-01T04:32:28.447Z,0.30
2018-07-01T04:34:56.748Z,0.30
2018-07-01T04:37:25.061Z,0.40
2018-07-01T04:39:53.396Z,0.30
2018-07-01T04:42:21.659Z,0.33
2018-07-01T04:44:49.708Z,0.40
2018-07-01T04:47:18.009Z,0.20
2018-07-01T04:49:45.975Z,0.50
2018-07-01T04:52:13.968Z,0.50
2018-07-01T04:54:42.252Z,0.20
2018-07-01T04:57:10.587Z,0.60
2018-07-01T04:59:39.247Z,0.30
2018-07-01T05:02:07.585Z,0.30
2018-07-01T05:04:35.845Z,0.40
2018-07-01T05:07:03.907Z,0.40
2018-07-01T05:09:31.927Z,0.40
2018-07-01T05:12:00.195Z,0.53
2018-07-01T05:14:28.472Z,0.40
2018-07-01T05:16:56.748Z,0.60
2018-07-01T05:19:25.049Z,0.40
2018-07-01T05:21:53.642Z,0.30
2018-07-01T05:24:21.943Z,0.30
2018-07-01T05:26:50.078Z,0.50
2018-07-01T05:29:18.915Z,0.40
2018-07-01T05:31:47.232Z,0.40
2018-07-01T05:34:15.501Z,0.40
2018-07-01T05:36:43.781Z,0.50
2018-07-01T05:39:12.865Z,0.50
2018-07-01T05:41:41.129Z,0.33
2018-07-01T05:44:09.403Z,0.50
2018-07-01T05:46:37.679Z,0.50
2018-07-01T05:49:06.023Z,0.47
2018-07-01T05:51:34.377Z,0.60
2018-07-01T05:54:02.697Z,0.30
2018-07-01T05:56:31.114Z,0.30
2018-07-01T05:58:59.360Z,0.30
2018-07-01T06:01:27.327Z,0.50
2018-07-01T06:04:02.055Z,0.30
2018-07-01T06:06:30.073Z,0.37
2018-07-01T06:08:58.340Z,0.50
2018-07-01T06:11:26.620Z,0.20
2018-07-01T06:13:55.070Z,0.20
2018-07-01T06:16:23.430Z,0.40
2018-07-01T06:18:51.752Z,0.30
2018-07-01T06:21:20.009Z,0.40
2018-07-01T06:23:48.259Z,0.27
2018-07-01T06:26:16.504Z,0.37
2018-07-01T06:28:44.829Z,0.40
2018-07-01T06:31:13.104Z,0.30
2018-07-01T06:33:41.387Z,0.40
2018-07-01T06:36:09.372Z,0.37
2018-07-01T06:38:37.725Z,0.40
2018-07-01T06:41:05.730Z,0.40
2018-07-01T06:43:34.017Z,0.40
2018-07-01T06:46:02.316Z,0.30
2018-07-01T06:48:30.625Z,0.30
2018-07-01T06:50:58.641Z,0.30
2018-07-01T06:53:26.952Z,0.40
2018-07-01T06:55:55.256Z,0.40
2018-07-01T06:58:23.248Z,0.37
2018-07-01T07:00:51.555Z,0.40
2018-07-01T07:03:20.557Z,0.40
2018-07-01T07:05:48.828Z,0.50
2018-07-01T07:08:17.129Z,0.50
2018-07-01T07:10:45.424Z,0.30
2018-07-01T07:13:13.733Z,0.50
2018-07-01T07:15:41.979Z,0.47
2018-07-01T07:18:10.262Z,0.30
2018-07-01T07:20:38.516Z,0.37
2018-07-01T07:23:06.899Z,0.43
2018-07-01T07:25:34.899Z,0.47
2018-07-01T07:28:03.272Z,0.40
2018-07-01T07:30:31.791Z,0.47
2018-07-01T07:33:00.053Z,0.30
2018-07-01T07:35:28.328Z,0.60
2018-07-01T07:37:56.892Z,0.57
2018-07-01T07:40:25.190Z,0.43
2018-07-01T07:42:53.762Z,0.57
2018-07-01T07:45:22.230Z,0.30
2018-07-01T07:47:50.530Z,0.40
2018-07-01T07:50:18.876Z,0.47
2018-07-01T07:52:46.862Z,0.30
2018-07-01T07:55:15.149Z,0.40
2018-07-01T07:57:43.852Z,0.30
2018-07-01T08:00:12.171Z,0.40
2018-07-01T08:02:40.198Z,0.40
2018-07-01T08:05:08.470Z,0.20
2018-07-01T08:07:36.699Z,0.30
2018-07-01T08:10:05.117Z,0.53
2018-07-01T08:12:33.359Z,0.30
2018-07-01T08:15:01.354Z,0.30
2018-07-01T08:17:29.700Z,0.40
2018-07-01T08:19:58.010Z,0.40
2018-07-01T08:22:26.289Z,0.50
2018-07-01T08:24:54.524Z,0.20
2018-07-01T08:27:22.841Z,0.57
2018-07-01T08:29:51.317Z,0.40
2018-07-01T08:32:19.658Z,0.30
2018-07-01T08:34:47.993Z,0.50
2018-07-01T08:37:16.411Z,0.20
2018-07-01T08:39:44.665Z,0.30
2018-07-01T08:42:21.736Z,0.30
2018-07-01T08:44:50.809Z,0.30
2018-07-01T08:47:19.221Z,0.20
2018-07-01T08:49:47.520Z,0.30
2018-07-01T08:52:16.191Z,0.30
2018-07-01T08:54:44.499Z,0.50
2018-07-01T08:57:13.644Z,0.30
2018-07-01T08:59:42.148Z,0.60
2018-07-01T09:02:10.417Z,0.40
2018-07-01T09:04:38.771Z,0.20
2018-07-01T09:07:07.050Z,0.30
2018-07-01T09:09:35.315Z,0.30
2018-07-01T09:12:03.599Z,0.30
2018-07-01T09:14:31.905Z,0.30
2018-07-01T09:17:00.227Z,0.20
2018-07-01T09:19:28.513Z,0.20
2018-07-01T09:21:56.832Z,0.33
2018-07-01T09:24:25.153Z,0.20
2018-07-01T09:26:53.157Z,0.30
2018-07-01T09:29:22.273Z,0.40
2018-07-01T09:31:51.775Z,0.40
2018-07-01T09:34:23.183Z,0.43
2018-07-01T09:36:52.033Z,0.40
2018-07-01T09:39:20.864Z,0.30
2018-07-01T09:41:50.387Z,0.33
2018-07-01T09:44:18.709Z,0.40
2018-07-01T09:46:46.988Z,0.40
2018-07-01T09:49:15.367Z,0.40
2018-07-01T09:51:43.652Z,0.40
2018-07-01T09:54:11.946Z,0.30
2018-07-01T09:56:39.908Z,0.30
2018-07-01T09:59:08.192Z,0.30
2018-07-01T10:01:36.503Z,0.30
2018-07-01T10:04:04.797Z,0.20
2018-07-01T10:06:33.158Z,0.30
2018-07-01T10:09:01.581Z,0.30
2018-07-01T10:11:29.883Z,0.30
2018-07-01T10:13:58.141Z,0.30
2018-07-01T10:16:26.400Z,0.30
2018-07-01T10:18:54.722Z,0.30
2018-07-01T10:21:22.968Z,0.20
2018-07-01T10:23:57.660Z,0.30
2018-07-01T10:26:25.907Z,0.30
2018-07-01T10:29:13.071Z,0.30
2018-07-01T10:31:42.211Z,0.43
2018-07-01T10:34:11.555Z,0.37
2018-07-01T10:36:39.867Z,0.43
2018-07-01T10:39:12.288Z,0.30
2018-07-01T10:41:40.616Z,0.30
2018-07-01T10:44:08.924Z,0.40
2018-07-01T10:46:37.291Z,0.30
2018-07-01T10:49:05.343Z,0.30
2018-07-01T10:51:33.727Z,0.20
2018-07-01T10:54:01.967Z,0.30
2018-07-01T10:56:30.276Z,0.50
2018-07-01T10:58:58.607Z,0.30
2018-07-01T11:01:26.906Z,0.40
2018-07-01T11:03:55.208Z,0.30
2018-07-01T11:06:23.535Z,0.30
2018-07-01T11:08:51.807Z,0.37
2018-07-01T11:11:20.105Z,0.37
2018-07-01T11:13:48.461Z,0.40
2018-07-01T11:16:16.759Z,0.37
2018-07-01T11:18:45.084Z,0.30
2018-07-01T11:21:13.090Z,0.20
2018-07-01T11:23:41.427Z,0.50
2018-07-01T11:26:09.736Z,0.23
2018-07-01T11:28:38.019Z,0.40
2018-07-01T11:31:06.451Z,0.30
2018-07-01T11:33:34.772Z,0.30
2018-07-01T11:36:03.040Z,0.37
2018-07-01T11:38:31.312Z,0.20
2018-07-01T11:40:59.319Z,0.30
2018-07-01T11:43:27.622Z,0.20
2018-07-01T11:45:55.903Z,0.30
2018-07-01T11:48:24.277Z,0.40
2018-07-01T11:50:52.584Z,0.40
2018-07-01T11:53:23.630Z,0.60
2018-07-01T11:55:53.052Z,0.30
2018-07-01T11:58:21.308Z,0.30
2018-07-01T12:00:49.331Z,0.30
2018-07-01T12:03:17.615Z,0.30
2018-07-01T12:05:45.892Z,0.47
2018-07-01T12:08:14.208Z,0.40
2018-07-01T12:10:42.200Z,0.30
2018-07-01T12:13:10.490Z,0.40
2018-07-01T12:15:38.902Z,0.30
2018-07-01T12:18:07.263Z,0.30
2018-07-01T12:20:35.558Z,0.30
2018-07-01T12:23:04.012Z,0.30
2018-07-01T12:25:32.361Z,0.23
2018-07-01T12:28:00.344Z,0.50
2018-07-01T12:30:28.656Z,0.40
2018-07-01T12:32:56.884Z,0.23
2018-07-01T12:35:24.871Z,0.40
2018-07-01T12:37:53.166Z,0.27
2018-07-01T12:40:21.440Z,0.20
2018-07-01T12:42:49.723Z,0.23
2018-07-01T12:45:18.010Z,0.20
2018-07-01T12:47:46.317Z,0.30
2018-07-01T12:50:14.626Z,0.40
2018-07-01T12:52:42.913Z,0.37
2018-07-01T12:55:11.180Z,0.30
2018-07-01T12:57:39.486Z,0.33
2018-07-01T13:00:08.700Z,0.40
2018-07-01T13:02:36.988Z,0.30
2018-07-01T13:05:05.335Z,0.50
2018-07-01T13:07:33.601Z,0.40
2018-07-01T13:10:01.833Z,0.30
2018-07-01T13:12:30.131Z,0.30
2018-07-01T13:14:58.446Z,0.40
2018-07-01T13:17:26.753Z,0.33
2018-07-01T13:19:55.022Z,0.60
2018-07-01T13:22:23.300Z,0.20
2018-07-01T13:24:51.572Z,0.30
2018-07-01T13:27:19.910Z,0.30
2018-07-01T13:29:48.440Z,0.30
2018-07-01T13:32:16.832Z,0.30
2018-07-01T13:34:45.100Z,0.33
2018-07-01T13:37:13.359Z,0.40
2018-07-01T13:39:41.685Z,0.30
2018-07-01T13:42:09.753Z,0.30
2018-07-01T13:44:38.003Z,0.30
2018-07-01T13:47:06.409Z,0.20
2018-07-01T13:49:34.453Z,0.20
2018-07-01T13:52:02.804Z,0.40
2018-07-01T13:54:31.106Z,0.30
2018-07-01T13:56:59.564Z,0.30
2018-07-01T13:59:29.292Z,0.30
2018-07-01T14:01:58.207Z,0.30
2018-07-01T14:04:26.487Z,0.30
2018-07-01T14:06:54.784Z,0.50
2018-07-01T14:09:22.836Z,0.30
2018-07-01T14:11:51.179Z,0.20
2018-07-01T14:14:19.472Z,0.30
2018-07-01T14:16:47.767Z,0.33
2018-07-01T14:19:16.052Z,0.30
2018-07-01T14:21:44.368Z,0.30
2018-07-01T14:24:12.624Z,0.53
2018-07-01T14:26:40.916Z,0.30
2018-07-01T14:29:09.160Z,0.30
2018-07-01T14:31:37.445Z,0.30
2018-07-01T14:34:05.722Z,0.40
2018-07-01T14:36:34.060Z,0.60
2018-07-01T14:39:06.939Z,0.40
2018-07-01T14:41:35.219Z,0.30
2018-07-01T14:44:03.509Z,0.40
2018-07-01T14:46:31.823Z,0.30
2018-07-01T14:49:00.095Z,0.40
2018-07-01T14:51:28.071Z,0.37
2018-07-01T14:53:56.339Z,0.30
2018-07-01T14:56:24.623Z,0.37
2018-07-01T14:58:52.873Z,0.43
2018-07-01T15:01:21.291Z,0.30
2018-07-01T15:03:49.194Z,0.50
2018-07-01T15:06:17.514Z,0.30
2018-07-01T15:08:45.773Z,0.30
2018-07-01T15:11:14.078Z,0.33
2018-07-01T15:13:42.387Z,0.40
2018-07-01T15:16:10.630Z,0.27
2018-07-01T15:18:38.645Z,0.33
2018-07-01T15:21:06.969Z,0.33
2018-07-01T15:23:35.270Z,0.60
2018-07-01T15:26:03.643Z,0.40
2018-07-01T15:28:31.640Z,0.37
2018-07-01T15:31:00.058Z,0.47
2018-07-01T15:33:28.366Z,0.37
2018-07-01T15:35:56.379Z,0.67
2018-07-01T15:38:24.732Z,0.40
2018-07-01T15:40:53.004Z,0.40
2018-07-01T15:43:21.356Z,0.30
2018-07-01T15:45:49.674Z,0.37
2018-07-01T15:48:17.916Z,0.30
2018-07-01T15:50:46.143Z,0.30
2018-07-01T15:53:14.483Z,0.30
2018-07-01T15:55:42.752Z,0.30
2018-07-01T15:58:10.791Z,0.40
2018-07-01T16:00:39.088Z,0.37
2018-07-01T16:03:07.608Z,0.40
2018-07-01T16:05:35.926Z,0.47
2018-07-01T16:08:04.350Z,0.23
2018-07-01T16:10:32.710Z,0.33
2018-07-01T16:13:01.036Z,0.30
2018-07-01T16:15:29.359Z,0.30
2018-07-01T16:17:57.627Z,0.40
2018-07-01T16:20:25.878Z,0.33
2018-07-01T16:22:54.156Z,0.40
2018-07-01T16:25:27.890Z,0.50
2018-07-01T16:28:01.557Z,0.30
2018-07-01T16:30:29.936Z,0.40
2018-07-01T16:32:58.207Z,0.27
2018-07-01T16:35:26.488Z,0.40
2018-07-01T16:37:54.774Z,0.23
2018-07-01T16:40:23.040Z,0.30
2018-07-01T16:42:51.360Z,0.30
2018-07-01T16:45:19.654Z,0.50
2018-07-01T16:47:47.688Z,0.50
2018-07-01T16:50:16.036Z,0.33
2018-07-01T16:52:44.274Z,0.60
2018-07-01T16:55:12.276Z,0.40
2018-07-01T16:57:40.534Z,0.30
2018-07-01T17:00:09.436Z,0.53
2018-07-01T17:02:37.716Z,0.30
2018-07-01T17:05:06.103Z,0.30
2018-07-01T17:07:34.593Z,0.33
2018-07-01T17:10:02.873Z,0.87
2018-07-01T17:12:31.151Z,0.40
2018-07-01T17:14:59.519Z,0.30
2018-07-01T17:17:27.780Z,0.30
2018-07-01T17:19:56.036Z,0.30
2018-07-01T17:22:24.355Z,0.37
2018-07-01T17:24:52.682Z,0.30
2018-07-01T17:27:20.677Z,0.50
2018-07-01T17:29:49.093Z,0.30
2018-07-01T17:32:22.803Z,0.93
2018-07-01T17:34:51.103Z,0.40
2018-07-01T17:37:19.381Z,0.37
2018-07-01T17:39:47.687Z,0.30
2018-07-01T17:42:16.060Z,0.30
2018-07-01T17:44:44.048Z,0.40
2018-07-01T17:47:12.355Z,0.40
2018-07-01T17:49:40.628Z,0.40
2018-07-01T17:52:08.924Z,0.37
2018-07-01T17:54:37.320Z,0.40
2018-07-01T17:57:05.600Z,0.40
2018-07-01T17:59:35.682Z,0.60
2018-07-01T18:02:04.104Z,0.30
2018-07-01T18:04:32.354Z,0.30
2018-07-01T18:07:00.821Z,0.40
2018-07-01T18:09:29.396Z,0.50
2018-07-01T18:11:57.889Z,0.40
2018-07-01T18:14:26.399Z,0.40
2018-07-01T18:16:54.904Z,0.33
2018-07-01T18:19:23.393Z,0.30
2018-07-01T18:22:11.328Z,0.40
2018-07-01T18:24:48.926Z,0.40
2018-07-01T18:26:48.826Z,0.37
2018-07-01T18:29:19.774Z,0.40
2018-07-01T18:31:46.900Z,0.70
2018-07-01T18:34:15.130Z,0.40
2018-07-01T18:36:43.660Z,0.37
2018-07-01T18:39:12.423Z,0.60
2018-07-01T18:41:40.674Z,0.50
2018-07-01T18:44:09.230Z,0.40
2018-07-01T18:46:37.732Z,0.50
2018-07-01T18:49:06.240Z,0.40
2018-07-01T18:51:34.835Z,0.50
2018-07-01T18:54:03.080Z,0.50
2018-07-01T18:56:31.583Z,0.50
2018-07-01T18:59:00.112Z,0.40
2018-07-01T19:01:28.590Z,0.53
2018-07-01T19:03:57.154Z,0.50
2018-07-01T19:06:25.398Z,0.50
2018-07-01T19:08:53.900Z,0.40
2018-07-01T19:11:22.401Z,0.50
2018-07-01T19:13:50.912Z,0.50
2018-07-01T19:16:19.450Z,0.70
2018-07-01T19:18:47.683Z,0.50
2018-07-01T19:21:16.191Z,0.70
2018-07-01T19:23:44.686Z,0.90
2018-07-01T19:26:12.924Z,0.47
2018-07-01T19:28:41.415Z,0.43
2018-07-01T19:31:09.932Z,0.50
2018-07-01T19:33:39.259Z,0.60
2018-07-01T19:36:07.806Z,0.43
2018-07-01T19:38:36.329Z,0.30
2018-07-01T19:41:04.818Z,0.33
2018-07-01T19:43:33.570Z,0.33
2018-07-01T19:46:01.982Z,0.50
2018-07-01T19:48:31.280Z,0.40
2018-07-01T19:50:59.778Z,0.50
2018-07-01T19:53:28.379Z,0.40
2018-07-01T19:55:56.885Z,0.30
2018-07-01T19:58:25.128Z,0.40
2018-07-01T20:00:53.623Z,0.40
2018-07-01T20:03:22.143Z,0.30
2018-07-01T20:05:50.715Z,0.43
2018-07-01T20:08:19.322Z,0.60
2018-07-01T20:10:47.938Z,0.40
2018-07-01T20:13:16.443Z,0.30
2018-07-01T20:15:44.920Z,0.30
2018-07-01T20:18:13.456Z,0.40
2018-07-01T20:20:41.755Z,0.30
2018-07-01T20:23:10.026Z,0.40
2018-07-01T20:25:38.361Z,0.30
2018-07-01T20:28:06.734Z,0.40
2018-07-01T20:30:35.049Z,0.37
2018-07-01T20:33:03.012Z,0.30
2018-07-01T20:35:31.059Z,0.40
2018-07-01T20:37:59.324Z,0.47
2018-07-01T20:40:27.596Z,0.40
2018-07-01T20:42:55.909Z,0.37
2018-07-01T20:45:23.971Z,0.30
2018-07-01T20:47:52.261Z,0.23
2018-07-01T20:50:20.258Z,0.20
2018-07-01T20:52:48.557Z,0.40
2018-07-01T20:55:16.876Z,0.30
2018-07-01T20:57:44.956Z,0.40
2018-07-01T21:00:12.973Z,0.50
2018-07-01T21:02:41.249Z,0.50
2018-07-01T21:05:09.588Z,0.30
2018-07-01T21:07:37.795Z,0.47
2018-07-01T21:10:06.098Z,0.37
2018-07-01T21:12:34.418Z,0.50
2018-07-01T21:15:02.696Z,0.30
2018-07-01T21:17:31.007Z,0.40
2018-07-01T21:19:59.332Z,0.30
2018-07-01T21:22:27.348Z,0.50
2018-07-01T21:24:55.616Z,0.40
2018-07-01T21:27:23.872Z,0.20
2018-07-01T21:29:52.511Z,0.37
2018-07-01T21:32:20.809Z,0.33
2018-07-01T21:34:49.109Z,0.33
2018-07-01T21:37:17.371Z,0.30
2018-07-01T21:39:45.645Z,0.60
2018-07-01T21:42:13.907Z,0.67
2018-07-01T21:44:42.179Z,0.60
2018-07-01T21:47:10.432Z,0.50
2018-07-01T21:49:38.741Z,0.60
2018-07-01T21:52:07.048Z,0.63
2018-07-01T21:54:35.358Z,0.83
2018-07-01T21:57:03.617Z,0.63
2018-07-01T21:59:34.119Z,1.17
2018-07-01T22:02:02.471Z,0.97
2018-07-01T22:04:30.699Z,1.27
2018-07-01T22:06:59.183Z,1.43
2018-07-01T22:09:27.854Z,1.50
2018-07-01T22:12:01.576Z,1.60
2018-07-01T22:14:38.128Z,1.53
2018-07-01T22:17:08.668Z,1.50
2018-07-01T22:19:37.149Z,1.80
2018-07-01T22:22:05.692Z,1.70
2018-07-01T22:24:35.119Z,1.70
2018-07-01T22:27:03.121Z,2.00
2018-07-01T22:29:32.723Z,1.83
2018-07-01T22:32:01.073Z,1.83
2018-07-01T22:34:29.291Z,1.70
2018-07-01T22:36:57.581Z,2.00
2018-07-01T22:39:27.860Z,1.93
2018-07-01T22:41:57.057Z,2.00
2018-07-01T22:44:25.315Z,1.70
2018-07-01T22:46:53.753Z,1.77
2018-07-01T22:49:21.974Z,1.67
2018-07-01T22:51:49.943Z,1.80
2018-07-01T22:54:18.172Z,1.60
2018-07-01T22:56:46.390Z,1.70
2018-07-01T22:59:14.780Z,1.57
2018-07-01T23:02:53.127Z,1.90
2018-07-01T23:05:22.418Z,1.63
2018-07-01T23:07:51.205Z,1.90
2018-07-01T23:10:21.211Z,1.57
2018-07-01T23:12:50.021Z,1.57
2018-07-01T23:15:18.247Z,1.70
2018-07-01T23:17:46.472Z,1.73
2018-07-01T23:20:14.704Z,1.60
2018-07-01T23:22:42.969Z,1.40
2018-07-01T23:25:12.025Z,1.70
2018-07-01T23:27:40.318Z,1.50
2018-07-01T23:30:08.623Z,1.80
2018-07-01T23:32:36.879Z,1.40
2018-07-01T23:35:05.325Z,1.73
2018-07-01T23:37:33.674Z,1.50
2018-07-01T23:40:01.910Z,1.77
2018-07-01T23:42:30.164Z,1.70
2018-07-01T23:44:58.459Z,1.30
2018-07-01T23:47:26.771Z,1.23
2018-07-01T23:49:54.818Z,1.47
2018-07-01T23:52:23.136Z,1.47
2018-07-01T23:54:51.459Z,1.47
2018-07-01T23:57:19.754Z,1.40
2018-07-01T23:59:48.228Z,1.37
